sensor_id;sensor_type;location;lat;lon;timestamp;temperature;humidity
12291;DHT22;6208;48.956;9.076;2023-07-08T00:01:26;22.00;68.80
12291;DHT22;6208;48.956;9.076;2023-07-08T00:04:10;21.90;69.40
12291;DHT22;6208;48.956;9.076;2023-07-08T00:06:54;21.90;69.70
12291;DHT22;6208;48.956;9.076;2023-07-08T00:09:38;21.90;68.40
12291;DHT22;6208;48.956;9.076;2023-07-08T00:12:22;21.90;68.30
12291;DHT22;6208;48.956;9.076;2023-07-08T00:15:09;21.90;68.00
12291;DHT22;6208;48.956;9.076;2023-07-08T00:17:53;21.90;67.30
12291;DHT22;6208;48.956;9.076;2023-07-08T00:20:42;21.80;66.30
12291;DHT22;6208;48.956;9.076;2023-07-08T00:23:27;21.70;69.60
12291;DHT22;6208;48.956;9.076;2023-07-08T00:26:24;21.60;72.10
12291;DHT22;6208;48.956;9.076;2023-07-08T00:29:16;21.50;72.00
12291;DHT22;6208;48.956;9.076;2023-07-08T00:32:01;21.40;73.50
12291;DHT22;6208;48.956;9.076;2023-07-08T00:34:45;21.30;75.50
12291;DHT22;6208;48.956;9.076;2023-07-08T00:37:30;21.30;75.40
12291;DHT22;6208;48.956;9.076;2023-07-08T00:40:16;21.20;77.10
12291;DHT22;6208;48.956;9.076;2023-07-08T00:43:03;21.20;75.00
12291;DHT22;6208;48.956;9.076;2023-07-08T00:45:52;21.10;75.00
12291;DHT22;6208;48.956;9.076;2023-07-08T00:48:40;21.10;76.10
12291;DHT22;6208;48.956;9.076;2023-07-08T00:51:25;21.00;76.10
12291;DHT22;6208;48.956;9.076;2023-07-08T00:54:15;21.10;74.10
12291;DHT22;6208;48.956;9.076;2023-07-08T00:57:01;21.10;72.90
12291;DHT22;6208;48.956;9.076;2023-07-08T01:02:38;21.00;78.50
12291;DHT22;6208;48.956;9.076;2023-07-08T01:05:25;20.80;79.50
12291;DHT22;6208;48.956;9.076;2023-07-08T01:08:11;20.60;80.30
12291;DHT22;6208;48.956;9.076;2023-07-08T01:11:01;20.30;81.00
12291;DHT22;6208;48.956;9.076;2023-07-08T01:13:46;20.00;82.10
12291;DHT22;6208;48.956;9.076;2023-07-08T01:16:30;19.70;83.80
12291;DHT22;6208;48.956;9.076;2023-07-08T01:19:20;19.50;85.00
12291;DHT22;6208;48.956;9.076;2023-07-08T01:22:15;19.40;85.80
12291;DHT22;6208;48.956;9.076;2023-07-08T01:25:01;19.30;87.30
12291;DHT22;6208;48.956;9.076;2023-07-08T01:27:53;19.40;87.30
12291;DHT22;6208;48.956;9.076;2023-07-08T01:30:41;19.60;86.00
12291;DHT22;6208;48.956;9.076;2023-07-08T01:33:26;19.60;88.20
12291;DHT22;6208;48.956;9.076;2023-07-08T01:36:11;19.60;90.50
12291;DHT22;6208;48.956;9.076;2023-07-08T01:38:55;19.60;90.60
12291;DHT22;6208;48.956;9.076;2023-07-08T01:41:39;19.70;91.10
12291;DHT22;6208;48.956;9.076;2023-07-08T01:47:20;19.40;91.10
12291;DHT22;6208;48.956;9.076;2023-07-08T01:50:07;19.20;91.80
12291;DHT22;6208;48.956;9.076;2023-07-08T01:52:53;18.90;92.30
12291;DHT22;6208;48.956;9.076;2023-07-08T01:55:40;18.80;92.60
12291;DHT22;6208;48.956;9.076;2023-07-08T01:58:24;18.80;93.20
12291;DHT22;6208;48.956;9.076;2023-07-08T02:01:09;18.80;93.40
12291;DHT22;6208;48.956;9.076;2023-07-08T02:03:54;19.00;92.70
12291;DHT22;6208;48.956;9.076;2023-07-08T02:06:38;19.20;91.80
12291;DHT22;6208;48.956;9.076;2023-07-08T02:09:23;19.30;91.20
12291;DHT22;6208;48.956;9.076;2023-07-08T02:12:09;19.40;91.10
12291;DHT22;6208;48.956;9.076;2023-07-08T02:14:53;19.40;91.20
12291;DHT22;6208;48.956;9.076;2023-07-08T02:17:37;19.30;92.40
12291;DHT22;6208;48.956;9.076;2023-07-08T02:20:21;19.20;93.10
12291;DHT22;6208;48.956;9.076;2023-07-08T02:23:05;19.40;93.20
12291;DHT22;6208;48.956;9.076;2023-07-08T02:25:54;19.00;93.10
12291;DHT22;6208;48.956;9.076;2023-07-08T02:28:38;18.70;93.50
12291;DHT22;6208;48.956;9.076;2023-07-08T02:31:22;18.60;93.90
12291;DHT22;6208;48.956;9.076;2023-07-08T02:34:08;18.50;94.20
12291;DHT22;6208;48.956;9.076;2023-07-08T02:36:52;18.40;95.20
12291;DHT22;6208;48.956;9.076;2023-07-08T02:39:36;18.50;94.20
12291;DHT22;6208;48.956;9.076;2023-07-08T02:42:20;18.80;94.70
12291;DHT22;6208;48.956;9.076;2023-07-08T02:45:05;18.70;95.10
12291;DHT22;6208;48.956;9.076;2023-07-08T02:47:49;18.80;93.70
12291;DHT22;6208;48.956;9.076;2023-07-08T02:50:33;18.90;93.70
12291;DHT22;6208;48.956;9.076;2023-07-08T02:53:17;18.80;93.60
12291;DHT22;6208;48.956;9.076;2023-07-08T02:56:02;18.90;94.30
12291;DHT22;6208;48.956;9.076;2023-07-08T02:58:46;18.80;95.00
12291;DHT22;6208;48.956;9.076;2023-07-08T03:01:30;18.70;95.40
12291;DHT22;6208;48.956;9.076;2023-07-08T03:04:15;18.60;95.80
12291;DHT22;6208;48.956;9.076;2023-07-08T03:07:00;18.70;94.30
12291;DHT22;6208;48.956;9.076;2023-07-08T03:09:44;18.60;95.60
12291;DHT22;6208;48.956;9.076;2023-07-08T03:12:28;18.40;96.10
12291;DHT22;6208;48.956;9.076;2023-07-08T03:15:12;18.20;96.60
12291;DHT22;6208;48.956;9.076;2023-07-08T03:17:57;18.00;97.40
12291;DHT22;6208;48.956;9.076;2023-07-08T03:20:41;17.90;98.10
12291;DHT22;6208;48.956;9.076;2023-07-08T03:23:28;17.90;98.60
12291;DHT22;6208;48.956;9.076;2023-07-08T03:26:18;17.80;98.60
12291;DHT22;6208;48.956;9.076;2023-07-08T03:29:03;17.90;97.80
12291;DHT22;6208;48.956;9.076;2023-07-08T03:31:47;18.00;98.10
12291;DHT22;6208;48.956;9.076;2023-07-08T03:34:31;18.20;97.50
12291;DHT22;6208;48.956;9.076;2023-07-08T03:37:15;18.20;98.60
12291;DHT22;6208;48.956;9.076;2023-07-08T03:39:59;18.10;99.00
12291;DHT22;6208;48.956;9.076;2023-07-08T03:42:43;18.00;99.20
12291;DHT22;6208;48.956;9.076;2023-07-08T03:45:28;18.00;99.60
12291;DHT22;6208;48.956;9.076;2023-07-08T03:48:12;18.00;99.80
12291;DHT22;6208;48.956;9.076;2023-07-08T03:50:56;17.90;99.90
12291;DHT22;6208;48.956;9.076;2023-07-08T03:53:40;17.90;99.90
12291;DHT22;6208;48.956;9.076;2023-07-08T03:56:24;17.90;99.90
12291;DHT22;6208;48.956;9.076;2023-07-08T03:59:08;17.90;99.90
12291;DHT22;6208;48.956;9.076;2023-07-08T04:01:52;18.00;99.70
12291;DHT22;6208;48.956;9.076;2023-07-08T04:04:37;18.10;98.80
12291;DHT22;6208;48.956;9.076;2023-07-08T04:07:21;18.30;98.50
12291;DHT22;6208;48.956;9.076;2023-07-08T04:10:06;18.30;98.30
12291;DHT22;6208;48.956;9.076;2023-07-08T04:12:50;18.40;98.90
12291;DHT22;6208;48.956;9.076;2023-07-08T04:15:35;18.40;98.00
12291;DHT22;6208;48.956;9.076;2023-07-08T04:18:19;18.40;98.60
12291;DHT22;6208;48.956;9.076;2023-07-08T04:21:04;18.40;99.10
12291;DHT22;6208;48.956;9.076;2023-07-08T04:23:48;18.50;99.10
12291;DHT22;6208;48.956;9.076;2023-07-08T04:26:33;18.60;99.40
12291;DHT22;6208;48.956;9.076;2023-07-08T04:29:21;18.70;99.30
12291;DHT22;6208;48.956;9.076;2023-07-08T04:32:06;18.80;99.00
12291;DHT22;6208;48.956;9.076;2023-07-08T04:34:51;18.80;99.30
12291;DHT22;6208;48.956;9.076;2023-07-08T04:37:36;18.90;99.10
12291;DHT22;6208;48.956;9.076;2023-07-08T04:40:21;18.90;99.30
12291;DHT22;6208;48.956;9.076;2023-07-08T04:43:06;19.00;99.20
12291;DHT22;6208;48.956;9.076;2023-07-08T04:45:53;19.00;99.20
12291;DHT22;6208;48.956;9.076;2023-07-08T04:48:37;19.10;99.70
12291;DHT22;6208;48.956;9.076;2023-07-08T04:51:21;19.10;98.80
12291;DHT22;6208;48.956;9.076;2023-07-08T04:54:06;19.30;98.10
12291;DHT22;6208;48.956;9.076;2023-07-08T04:56:51;19.40;97.90
12291;DHT22;6208;48.956;9.076;2023-07-08T04:59:37;19.50;98.90
12291;DHT22;6208;48.956;9.076;2023-07-08T05:02:21;19.60;98.70
12291;DHT22;6208;48.956;9.076;2023-07-08T05:05:05;19.60;98.60
12291;DHT22;6208;48.956;9.076;2023-07-08T05:07:49;19.70;99.20
12291;DHT22;6208;48.956;9.076;2023-07-08T05:10:34;19.80;99.30
12291;DHT22;6208;48.956;9.076;2023-07-08T05:13:18;19.80;99.30
12291;DHT22;6208;48.956;9.076;2023-07-08T05:16:02;19.80;98.80
12291;DHT22;6208;48.956;9.076;2023-07-08T05:18:46;19.90;97.30
12291;DHT22;6208;48.956;9.076;2023-07-08T05:21:31;19.90;97.30
12291;DHT22;6208;48.956;9.076;2023-07-08T05:24:18;19.90;97.50
12291;DHT22;6208;48.956;9.076;2023-07-08T05:27:03;19.90;97.20
12291;DHT22;6208;48.956;9.076;2023-07-08T05:29:47;20.00;99.00
12291;DHT22;6208;48.956;9.076;2023-07-08T05:32:32;20.00;98.00
12291;DHT22;6208;48.956;9.076;2023-07-08T05:35:16;20.10;96.40
12291;DHT22;6208;48.956;9.076;2023-07-08T05:38:01;20.30;96.00
12291;DHT22;6208;48.956;9.076;2023-07-08T05:40:50;20.30;96.60
12291;DHT22;6208;48.956;9.076;2023-07-08T05:43:35;20.40;96.70
12291;DHT22;6208;48.956;9.076;2023-07-08T05:46:19;20.50;94.80
12291;DHT22;6208;48.956;9.076;2023-07-08T05:49:03;20.60;94.70
12291;DHT22;6208;48.956;9.076;2023-07-08T05:51:47;20.70;95.00
12291;DHT22;6208;48.956;9.076;2023-07-08T05:54:32;20.70;95.50
12291;DHT22;6208;48.956;9.076;2023-07-08T05:57:16;20.80;96.60
12291;DHT22;6208;48.956;9.076;2023-07-08T06:00:00;20.80;95.60
12291;DHT22;6208;48.956;9.076;2023-07-08T06:02:44;20.90;96.10
12291;DHT22;6208;48.956;9.076;2023-07-08T06:05:28;21.10;95.30
12291;DHT22;6208;48.956;9.076;2023-07-08T06:08:12;21.10;95.60
12291;DHT22;6208;48.956;9.076;2023-07-08T06:10:56;21.30;95.30
12291;DHT22;6208;48.956;9.076;2023-07-08T06:13:40;21.40;94.40
12291;DHT22;6208;48.956;9.076;2023-07-08T06:16:25;21.50;94.30
12291;DHT22;6208;48.956;9.076;2023-07-08T06:19:09;21.50;94.80
12291;DHT22;6208;48.956;9.076;2023-07-08T06:21:53;21.60;92.70
12291;DHT22;6208;48.956;9.076;2023-07-08T06:24:37;21.60;92.00
12291;DHT22;6208;48.956;9.076;2023-07-08T06:27:21;21.70;91.90
12291;DHT22;6208;48.956;9.076;2023-07-08T06:30:06;21.90;91.20
12291;DHT22;6208;48.956;9.076;2023-07-08T06:32:50;22.00;91.70
12291;DHT22;6208;48.956;9.076;2023-07-08T06:35:35;22.10;91.80
12291;DHT22;6208;48.956;9.076;2023-07-08T06:38:19;22.20;92.00
12291;DHT22;6208;48.956;9.076;2023-07-08T06:41:03;22.40;92.30
12291;DHT22;6208;48.956;9.076;2023-07-08T06:43:47;22.40;91.90
12291;DHT22;6208;48.956;9.076;2023-07-08T06:46:31;22.50;92.10
12291;DHT22;6208;48.956;9.076;2023-07-08T06:49:17;22.70;91.50
12291;DHT22;6208;48.956;9.076;2023-07-08T06:52:01;22.80;92.40
12291;DHT22;6208;48.956;9.076;2023-07-08T06:54:48;22.90;92.40
12291;DHT22;6208;48.956;9.076;2023-07-08T06:57:33;23.00;92.10
12291;DHT22;6208;48.956;9.076;2023-07-08T07:00:17;23.10;91.40
12291;DHT22;6208;48.956;9.076;2023-07-08T07:03:01;23.30;90.20
12291;DHT22;6208;48.956;9.076;2023-07-08T07:05:45;23.50;88.30
12291;DHT22;6208;48.956;9.076;2023-07-08T07:08:29;23.60;88.50
12291;DHT22;6208;48.956;9.076;2023-07-08T07:11:13;23.70;86.90
12291;DHT22;6208;48.956;9.076;2023-07-08T07:13:58;23.80;90.00
12291;DHT22;6208;48.956;9.076;2023-07-08T07:16:42;23.90;89.00
12291;DHT22;6208;48.956;9.076;2023-07-08T07:19:26;24.00;86.70
12291;DHT22;6208;48.956;9.076;2023-07-08T07:22:10;24.10;89.00
12291;DHT22;6208;48.956;9.076;2023-07-08T07:24:55;24.20;89.10
12291;DHT22;6208;48.956;9.076;2023-07-08T07:27:39;24.30;88.20
12291;DHT22;6208;48.956;9.076;2023-07-08T07:30:23;24.40;86.20
12291;DHT22;6208;48.956;9.076;2023-07-08T07:33:07;24.50;84.10
12291;DHT22;6208;48.956;9.076;2023-07-08T07:35:51;24.60;84.20
12291;DHT22;6208;48.956;9.076;2023-07-08T07:38:35;24.70;89.10
12291;DHT22;6208;48.956;9.076;2023-07-08T07:41:19;24.90;87.50
12291;DHT22;6208;48.956;9.076;2023-07-08T07:44:03;25.10;87.30
12291;DHT22;6208;48.956;9.076;2023-07-08T07:46:47;25.20;84.60
12291;DHT22;6208;48.956;9.076;2023-07-08T07:49:32;25.30;78.10
12291;DHT22;6208;48.956;9.076;2023-07-08T07:52:16;25.30;79.90
12291;DHT22;6208;48.956;9.076;2023-07-08T07:55:07;25.40;80.70
12291;DHT22;6208;48.956;9.076;2023-07-08T07:57:51;25.40;78.50
12291;DHT22;6208;48.956;9.076;2023-07-08T08:00:35;25.40;73.70
12291;DHT22;6208;48.956;9.076;2023-07-08T08:03:20;25.50;78.10
12291;DHT22;6208;48.956;9.076;2023-07-08T08:06:04;25.50;75.70
12291;DHT22;6208;48.956;9.076;2023-07-08T08:08:48;25.60;74.50
12291;DHT22;6208;48.956;9.076;2023-07-08T08:11:33;25.80;75.90
12291;DHT22;6208;48.956;9.076;2023-07-08T08:14:18;25.80;77.40
12291;DHT22;6208;48.956;9.076;2023-07-08T08:17:03;26.00;77.40
12291;DHT22;6208;48.956;9.076;2023-07-08T08:19:48;26.10;75.40
12291;DHT22;6208;48.956;9.076;2023-07-08T08:22:32;26.30;72.40
12291;DHT22;6208;48.956;9.076;2023-07-08T08:25:18;26.40;70.10
12291;DHT22;6208;48.956;9.076;2023-07-08T08:28:02;26.40;72.30
12291;DHT22;6208;48.956;9.076;2023-07-08T08:30:49;26.50;72.60
12291;DHT22;6208;48.956;9.076;2023-07-08T08:33:33;26.60;76.10
12291;DHT22;6208;48.956;9.076;2023-07-08T08:36:17;26.80;73.20
12291;DHT22;6208;48.956;9.076;2023-07-08T08:39:02;27.10;73.50
12291;DHT22;6208;48.956;9.076;2023-07-08T08:41:46;27.30;69.30
12291;DHT22;6208;48.956;9.076;2023-07-08T08:44:35;27.30;68.30
12291;DHT22;6208;48.956;9.076;2023-07-08T08:50:31;27.40;70.50
12291;DHT22;6208;48.956;9.076;2023-07-08T08:53:17;27.50;72.40
12291;DHT22;6208;48.956;9.076;2023-07-08T08:56:22;27.70;69.50
12291;DHT22;6208;48.956;9.076;2023-07-08T08:59:35;28.00;68.70
12291;DHT22;6208;48.956;9.076;2023-07-08T09:05:16;28.30;66.10
12291;DHT22;6208;48.956;9.076;2023-07-08T09:08:14;28.30;68.00
12291;DHT22;6208;48.956;9.076;2023-07-08T09:11:10;28.50;68.30
12291;DHT22;6208;48.956;9.076;2023-07-08T09:13:57;28.60;67.40
12291;DHT22;6208;48.956;9.076;2023-07-08T09:16:49;28.70;66.00
12291;DHT22;6208;48.956;9.076;2023-07-08T09:19:40;29.00;62.90
12291;DHT22;6208;48.956;9.076;2023-07-08T09:22:30;29.10;65.90
12291;DHT22;6208;48.956;9.076;2023-07-08T09:28:13;29.30;66.20
12291;DHT22;6208;48.956;9.076;2023-07-08T09:30:58;29.40;63.20
12291;DHT22;6208;48.956;9.076;2023-07-08T09:33:42;29.40;63.60
12291;DHT22;6208;48.956;9.076;2023-07-08T09:36:26;29.40;63.30
12291;DHT22;6208;48.956;9.076;2023-07-08T09:39:12;29.50;63.80
12291;DHT22;6208;48.956;9.076;2023-07-08T09:41:57;29.60;65.00
12291;DHT22;6208;48.956;9.076;2023-07-08T09:44:58;29.70;63.10
12291;DHT22;6208;48.956;9.076;2023-07-08T09:47:43;29.80;61.90
12291;DHT22;6208;48.956;9.076;2023-07-08T09:50:29;29.80;63.50
12291;DHT22;6208;48.956;9.076;2023-07-08T09:53:15;29.90;60.00
12291;DHT22;6208;48.956;9.076;2023-07-08T09:56:03;29.90;60.50
12291;DHT22;6208;48.956;9.076;2023-07-08T09:58:48;30.20;59.00
12291;DHT22;6208;48.956;9.076;2023-07-08T10:01:33;30.70;58.70
12291;DHT22;6208;48.956;9.076;2023-07-08T10:04:19;31.20;57.50
12291;DHT22;6208;48.956;9.076;2023-07-08T10:07:05;31.50;58.00
12291;DHT22;6208;48.956;9.076;2023-07-08T10:09:59;31.70;56.40
12291;DHT22;6208;48.956;9.076;2023-07-08T10:12:53;32.00;55.30
12291;DHT22;6208;48.956;9.076;2023-07-08T10:15:43;32.30;53.80
12291;DHT22;6208;48.956;9.076;2023-07-08T10:18:30;32.90;53.10
12291;DHT22;6208;48.956;9.076;2023-07-08T10:24:26;34.50;52.30
12291;DHT22;6208;48.956;9.076;2023-07-08T10:28:40;34.70;55.70
12291;DHT22;6208;48.956;9.076;2023-07-08T10:34:09;34.20;54.10
12291;DHT22;6208;48.956;9.076;2023-07-08T10:40:05;33.70;54.30
12291;DHT22;6208;48.956;9.076;2023-07-08T10:46:15;32.80;54.50
12291;DHT22;6208;48.956;9.076;2023-07-08T10:53:00;32.60;52.00
12291;DHT22;6208;48.956;9.076;2023-07-08T10:56:04;32.20;51.90
12291;DHT22;6208;48.956;9.076;2023-07-08T10:59:06;32.30;56.10
12291;DHT22;6208;48.956;9.076;2023-07-08T11:02:13;32.20;53.60
12291;DHT22;6208;48.956;9.076;2023-07-08T11:11:09;32.20;54.90
12291;DHT22;6208;48.956;9.076;2023-07-08T11:14:13;32.20;54.80
12291;DHT22;6208;48.956;9.076;2023-07-08T11:17:16;32.10;57.90
12291;DHT22;6208;48.956;9.076;2023-07-08T11:24:18;32.00;57.50
12291;DHT22;6208;48.956;9.076;2023-07-08T11:33:02;32.10;54.60
12291;DHT22;6208;48.956;9.076;2023-07-08T11:35:50;32.20;52.90
12291;DHT22;6208;48.956;9.076;2023-07-08T11:38:35;32.20;57.10
12291;DHT22;6208;48.956;9.076;2023-07-08T11:41:22;32.30;53.80
12291;DHT22;6208;48.956;9.076;2023-07-08T11:44:11;32.30;57.20
12291;DHT22;6208;48.956;9.076;2023-07-08T11:46:57;32.30;54.10
12291;DHT22;6208;48.956;9.076;2023-07-08T11:49:42;32.20;54.60
12291;DHT22;6208;48.956;9.076;2023-07-08T11:52:29;32.30;57.90
12291;DHT22;6208;48.956;9.076;2023-07-08T11:55:26;32.40;53.70
12291;DHT22;6208;48.956;9.076;2023-07-08T11:58:27;32.50;55.70
12291;DHT22;6208;48.956;9.076;2023-07-08T12:09:58;33.00;53.30
12291;DHT22;6208;48.956;9.076;2023-07-08T12:12:45;33.20;52.00
12291;DHT22;6208;48.956;9.076;2023-07-08T12:15:33;33.30;51.70
12291;DHT22;6208;48.956;9.076;2023-07-08T12:18:25;33.40;51.00
12291;DHT22;6208;48.956;9.076;2023-07-08T12:21:12;33.40;50.50
12291;DHT22;6208;48.956;9.076;2023-07-08T12:24:06;33.40;49.90
12291;DHT22;6208;48.956;9.076;2023-07-08T12:26:51;33.30;50.20
12291;DHT22;6208;48.956;9.076;2023-07-08T12:29:35;33.40;49.20
12291;DHT22;6208;48.956;9.076;2023-07-08T12:32:23;33.40;50.30
12291;DHT22;6208;48.956;9.076;2023-07-08T12:35:26;33.40;49.90
12291;DHT22;6208;48.956;9.076;2023-07-08T12:38:18;33.40;51.40
12291;DHT22;6208;48.956;9.076;2023-07-08T12:41:22;33.50;51.30
12291;DHT22;6208;48.956;9.076;2023-07-08T12:44:19;33.70;53.20
12291;DHT22;6208;48.956;9.076;2023-07-08T12:49:50;33.80;51.60
12291;DHT22;6208;48.956;9.076;2023-07-08T12:52:34;33.90;47.80
12291;DHT22;6208;48.956;9.076;2023-07-08T12:55:19;33.90;47.50
12291;DHT22;6208;48.956;9.076;2023-07-08T12:58:04;33.90;47.10
12291;DHT22;6208;48.956;9.076;2023-07-08T13:00:48;34.00;49.40
12291;DHT22;6208;48.956;9.076;2023-07-08T13:03:43;34.00;46.80
12291;DHT22;6208;48.956;9.076;2023-07-08T13:06:31;34.00;48.20
12291;DHT22;6208;48.956;9.076;2023-07-08T13:12:15;34.00;48.80
12291;DHT22;6208;48.956;9.076;2023-07-08T13:15:00;34.00;47.10
12291;DHT22;6208;48.956;9.076;2023-07-08T13:17:45;33.90;47.20
12291;DHT22;6208;48.956;9.076;2023-07-08T13:20:29;33.90;48.90
12291;DHT22;6208;48.956;9.076;2023-07-08T13:23:14;33.80;48.10
12291;DHT22;6208;48.956;9.076;2023-07-08T13:25:58;33.90;48.80
12291;DHT22;6208;48.956;9.076;2023-07-08T13:28:43;33.90;46.30
12291;DHT22;6208;48.956;9.076;2023-07-08T13:31:34;34.00;48.10
12291;DHT22;6208;48.956;9.076;2023-07-08T13:34:20;34.00;45.30
12291;DHT22;6208;48.956;9.076;2023-07-08T13:37:12;33.90;47.80
12291;DHT22;6208;48.956;9.076;2023-07-08T13:39:57;33.80;47.70
12291;DHT22;6208;48.956;9.076;2023-07-08T13:42:47;33.90;45.80
12291;DHT22;6208;48.956;9.076;2023-07-08T13:45:34;33.90;46.40
12291;DHT22;6208;48.956;9.076;2023-07-08T13:48:41;33.90;51.70
12291;DHT22;6208;48.956;9.076;2023-07-08T13:51:30;34.10;47.70
12291;DHT22;6208;48.956;9.076;2023-07-08T13:54:31;34.10;47.30
12291;DHT22;6208;48.956;9.076;2023-07-08T13:57:19;34.20;48.40
12291;DHT22;6208;48.956;9.076;2023-07-08T14:00:04;34.20;47.70
12291;DHT22;6208;48.956;9.076;2023-07-08T14:02:49;34.30;49.40
12291;DHT22;6208;48.956;9.076;2023-07-08T14:05:33;33.70;45.40
12291;DHT22;6208;48.956;9.076;2023-07-08T14:08:20;34.30;45.80
12291;DHT22;6208;48.956;9.076;2023-07-08T14:11:06;34.30;49.60
12291;DHT22;6208;48.956;9.076;2023-07-08T14:13:50;34.30;49.10
12291;DHT22;6208;48.956;9.076;2023-07-08T14:16:39;34.30;47.60
12291;DHT22;6208;48.956;9.076;2023-07-08T14:19:29;34.40;46.90
12291;DHT22;6208;48.956;9.076;2023-07-08T14:25:08;34.50;48.80
12291;DHT22;6208;48.956;9.076;2023-07-08T14:27:53;34.50;42.80
12291;DHT22;6208;48.956;9.076;2023-07-08T14:30:41;34.40;43.80
12291;DHT22;6208;48.956;9.076;2023-07-08T14:33:28;34.40;46.80
12291;DHT22;6208;48.956;9.076;2023-07-08T14:36:12;34.30;43.50
12291;DHT22;6208;48.956;9.076;2023-07-08T14:38:58;34.30;48.20
12291;DHT22;6208;48.956;9.076;2023-07-08T14:41:43;34.30;45.70
12291;DHT22;6208;48.956;9.076;2023-07-08T14:44:33;34.20;43.80
12291;DHT22;6208;48.956;9.076;2023-07-08T14:47:19;34.10;47.20
12291;DHT22;6208;48.956;9.076;2023-07-08T14:50:13;34.20;45.70
12291;DHT22;6208;48.956;9.076;2023-07-08T14:52:58;34.20;44.50
12291;DHT22;6208;48.956;9.076;2023-07-08T14:55:43;34.20;46.60
12291;DHT22;6208;48.956;9.076;2023-07-08T14:58:29;34.20;47.20
12291;DHT22;6208;48.956;9.076;2023-07-08T15:01:19;34.20;46.20
12291;DHT22;6208;48.956;9.076;2023-07-08T15:04:12;34.20;45.40
12291;DHT22;6208;48.956;9.076;2023-07-08T15:06:59;34.20;45.40
12291;DHT22;6208;48.956;9.076;2023-07-08T15:09:44;34.20;48.00
12291;DHT22;6208;48.956;9.076;2023-07-08T15:12:28;34.30;44.60
12291;DHT22;6208;48.956;9.076;2023-07-08T15:15:42;34.30;44.70
12291;DHT22;6208;48.956;9.076;2023-07-08T15:18:27;34.40;45.00
12291;DHT22;6208;48.956;9.076;2023-07-08T15:21:12;34.40;44.80
12291;DHT22;6208;48.956;9.076;2023-07-08T15:23:57;34.40;44.20
12291;DHT22;6208;48.956;9.076;2023-07-08T15:26:43;34.40;46.70
12291;DHT22;6208;48.956;9.076;2023-07-08T15:29:28;34.50;44.70
12291;DHT22;6208;48.956;9.076;2023-07-08T15:32:13;34.50;43.90
12291;DHT22;6208;48.956;9.076;2023-07-08T15:35:00;34.40;44.60
12291;DHT22;6208;48.956;9.076;2023-07-08T15:37:47;34.40;43.30
12291;DHT22;6208;48.956;9.076;2023-07-08T15:40:33;34.30;43.90
12291;DHT22;6208;48.956;9.076;2023-07-08T15:43:17;34.30;43.20
12291;DHT22;6208;48.956;9.076;2023-07-08T15:46:02;34.20;43.90
12291;DHT22;6208;48.956;9.076;2023-07-08T15:48:46;34.20;43.10
12291;DHT22;6208;48.956;9.076;2023-07-08T15:51:30;34.20;45.70
12291;DHT22;6208;48.956;9.076;2023-07-08T15:54:14;34.10;45.90
12291;DHT22;6208;48.956;9.076;2023-07-08T15:56:58;34.20;42.80
12291;DHT22;6208;48.956;9.076;2023-07-08T15:59:43;34.10;43.70
12291;DHT22;6208;48.956;9.076;2023-07-08T16:02:28;34.00;43.70
12291;DHT22;6208;48.956;9.076;2023-07-08T16:05:14;34.00;44.10
12291;DHT22;6208;48.956;9.076;2023-07-08T16:07:58;33.90;47.40
12291;DHT22;6208;48.956;9.076;2023-07-08T16:10:46;33.70;44.10
12291;DHT22;6208;48.956;9.076;2023-07-08T16:13:34;33.70;44.20
12291;DHT22;6208;48.956;9.076;2023-07-08T16:16:21;33.80;43.40
12291;DHT22;6208;48.956;9.076;2023-07-08T16:19:07;33.70;43.10
12291;DHT22;6208;48.956;9.076;2023-07-08T16:21:51;33.70;42.90
12291;DHT22;6208;48.956;9.076;2023-07-08T16:24:35;33.70;43.30
12291;DHT22;6208;48.956;9.076;2023-07-08T16:27:19;33.60;43.10
12291;DHT22;6208;48.956;9.076;2023-07-08T16:30:03;33.60;42.90
12291;DHT22;6208;48.956;9.076;2023-07-08T16:32:48;33.50;43.90
12291;DHT22;6208;48.956;9.076;2023-07-08T16:35:33;33.50;44.70
12291;DHT22;6208;48.956;9.076;2023-07-08T16:38:17;33.40;46.00
12291;DHT22;6208;48.956;9.076;2023-07-08T16:41:01;33.40;44.70
12291;DHT22;6208;48.956;9.076;2023-07-08T16:43:45;33.40;44.20
12291;DHT22;6208;48.956;9.076;2023-07-08T16:46:30;33.40;45.50
12291;DHT22;6208;48.956;9.076;2023-07-08T16:49:14;33.30;45.20
12291;DHT22;6208;48.956;9.076;2023-07-08T16:52:02;33.20;43.40
12291;DHT22;6208;48.956;9.076;2023-07-08T16:54:46;33.20;44.40
12291;DHT22;6208;48.956;9.076;2023-07-08T16:57:30;33.10;45.10
12291;DHT22;6208;48.956;9.076;2023-07-08T17:00:18;33.00;44.20
12291;DHT22;6208;48.956;9.076;2023-07-08T17:03:03;33.00;45.00
12291;DHT22;6208;48.956;9.076;2023-07-08T17:05:47;32.90;45.80
12291;DHT22;6208;48.956;9.076;2023-07-08T17:08:31;32.90;44.50
12291;DHT22;6208;48.956;9.076;2023-07-08T17:11:16;32.80;44.80
12291;DHT22;6208;48.956;9.076;2023-07-08T17:14:01;32.70;44.80
12291;DHT22;6208;48.956;9.076;2023-07-08T17:16:45;32.70;45.00
12291;DHT22;6208;48.956;9.076;2023-07-08T17:19:31;32.60;46.20
12291;DHT22;6208;48.956;9.076;2023-07-08T17:22:15;32.50;45.10
12291;DHT22;6208;48.956;9.076;2023-07-08T17:25:00;32.50;45.60
12291;DHT22;6208;48.956;9.076;2023-07-08T17:27:44;32.40;44.90
12291;DHT22;6208;48.956;9.076;2023-07-08T17:30:28;32.40;44.00
12291;DHT22;6208;48.956;9.076;2023-07-08T17:33:17;32.40;46.30
12291;DHT22;6208;48.956;9.076;2023-07-08T17:36:11;32.30;45.30
12291;DHT22;6208;48.956;9.076;2023-07-08T17:38:56;32.20;46.00
12291;DHT22;6208;48.956;9.076;2023-07-08T17:41:40;32.20;45.70
12291;DHT22;6208;48.956;9.076;2023-07-08T17:44:24;32.00;47.80
12291;DHT22;6208;48.956;9.076;2023-07-08T17:47:12;31.80;45.40
12291;DHT22;6208;48.956;9.076;2023-07-08T17:49:58;31.70;47.10
12291;DHT22;6208;48.956;9.076;2023-07-08T17:52:43;31.60;47.80
12291;DHT22;6208;48.956;9.076;2023-07-08T17:55:27;31.50;50.80
12291;DHT22;6208;48.956;9.076;2023-07-08T17:58:13;31.40;51.40
12291;DHT22;6208;48.956;9.076;2023-07-08T18:00:57;31.30;49.00
12291;DHT22;6208;48.956;9.076;2023-07-08T18:03:42;31.20;49.00
12291;DHT22;6208;48.956;9.076;2023-07-08T18:06:27;31.20;50.70
12291;DHT22;6208;48.956;9.076;2023-07-08T18:09:11;31.00;49.00
12291;DHT22;6208;48.956;9.076;2023-07-08T18:11:55;30.90;55.40
12291;DHT22;6208;48.956;9.076;2023-07-08T18:14:39;30.80;59.00
12291;DHT22;6208;48.956;9.076;2023-07-08T18:17:24;30.70;51.40
12291;DHT22;6208;48.956;9.076;2023-07-08T18:20:10;30.60;55.90
12291;DHT22;6208;48.956;9.076;2023-07-08T18:22:55;30.50;58.50
12291;DHT22;6208;48.956;9.076;2023-07-08T18:25:39;30.40;62.10
12291;DHT22;6208;48.956;9.076;2023-07-08T18:28:23;30.40;65.00
12291;DHT22;6208;48.956;9.076;2023-07-08T18:31:10;30.20;58.40
12291;DHT22;6208;48.956;9.076;2023-07-08T18:33:56;30.00;62.30
12291;DHT22;6208;48.956;9.076;2023-07-08T18:36:40;29.80;63.50
12291;DHT22;6208;48.956;9.076;2023-07-08T18:39:24;29.60;63.10
12291;DHT22;6208;48.956;9.076;2023-07-08T18:42:09;29.50;62.80
12291;DHT22;6208;48.956;9.076;2023-07-08T18:44:53;29.40;57.00
12291;DHT22;6208;48.956;9.076;2023-07-08T18:47:37;29.40;56.30
12291;DHT22;6208;48.956;9.076;2023-07-08T18:50:21;29.50;56.20
12291;DHT22;6208;48.956;9.076;2023-07-08T18:53:16;29.50;56.10